createdAt,value
2022-12-15T00:01:33.686Z,52
2022-12-15T00:04:04.790Z,52
2022-12-15T00:06:35.454Z,49
2022-12-15T00:09:09.783Z,49
2022-12-15T00:11:37.047Z,44
2022-12-15T00:14:07.905Z,43
2022-12-15T00:16:38.321Z,50
2022-12-15T00:19:09.248Z,46
2022-12-15T00:21:39.497Z,47
2022-12-15T00:24:10.837Z,51
2022-12-15T00:26:41.519Z,45
2022-12-15T00:29:12.290Z,42
2022-12-15T00:31:43.695Z,48
2022-12-15T00:34:14.729Z,48
2022-12-15T00:36:45.640Z,52
2022-12-15T00:39:16.802Z,44
2022-12-15T00:41:47.219Z,44
2022-12-15T00:44:20.697Z,45
2022-12-15T00:46:49.169Z,44
2022-12-15T00:49:19.886Z,40
2022-12-15T00:51:51.590Z,40
2022-12-15T00:54:22.751Z,43
2022-12-15T00:56:54.552Z,44
2022-12-15T00:59:25.231Z,47
2022-12-15T01:01:57.770Z,44
2022-12-15T01:04:27.764Z,40
2022-12-15T01:06:58.522Z,43
2022-12-15T01:09:30.665Z,44
2022-12-15T01:12:02.985Z,36
2022-12-15T01:14:33.915Z,45
2022-12-15T01:17:05.557Z,53
2022-12-15T01:19:36.026Z,36
2022-12-15T01:22:07.114Z,41
2022-12-15T01:24:37.881Z,42
2022-12-15T01:27:08.230Z,40
2022-12-15T01:29:38.814Z,39
2022-12-15T01:32:10.114Z,41
2022-12-15T01:34:41.616Z,40
2022-12-15T01:37:12.700Z,36
2022-12-15T01:39:43.524Z,29
2022-12-15T01:42:14.493Z,39
2022-12-15T01:44:45.520Z,42
2022-12-15T01:47:16.708Z,37
2022-12-15T01:49:46.742Z,29
2022-12-15T01:52:17.146Z,32
2022-12-15T01:54:48.729Z,44
2022-12-15T01:57:19.642Z,40
2022-12-15T01:59:50.404Z,32
2022-12-15T02:02:21.218Z,40
2022-12-15T02:04:52.087Z,40
2022-12-15T02:07:21.385Z,40
2022-12-15T02:09:52.513Z,32
2022-12-15T02:12:24.597Z,43
2022-12-15T02:14:55.897Z,35
2022-12-15T02:17:26.762Z,38
2022-12-15T02:19:57.430Z,36
2022-12-15T02:22:28.586Z,33
2022-12-15T02:24:59.290Z,32
2022-12-15T02:27:31.527Z,38
2022-12-15T02:30:01.938Z,33
2022-12-15T02:32:33.170Z,34
2022-12-15T02:35:04.845Z,41
2022-12-15T02:37:35.658Z,39
2022-12-15T02:40:06.538Z,38
2022-12-15T02:42:37.473Z,33
2022-12-15T02:45:06.451Z,37
2022-12-15T02:47:37.602Z,34
2022-12-15T02:50:08.384Z,35
2022-12-15T02:52:39.298Z,32
2022-12-15T02:55:10.124Z,33
2022-12-15T02:57:41.008Z,36
2022-12-15T03:00:12.206Z,35
2022-12-15T03:02:43.031Z,36
2022-12-15T03:05:13.545Z,36
2022-12-15T03:07:44.085Z,39
2022-12-15T03:10:16.773Z,36
2022-12-15T03:12:47.643Z,42
2022-12-15T03:15:18.477Z,35
2022-12-15T03:17:49.074Z,36
2022-12-15T03:20:20.261Z,39
2022-12-15T03:22:51.174Z,40
2022-12-15T03:25:21.999Z,41
2022-12-15T03:27:51.397Z,40
2022-12-15T03:30:23.354Z,36
2022-12-15T03:32:53.945Z,36
2022-12-15T03:35:26.635Z,37
2022-12-15T03:37:58.479Z,32
2022-12-15T03:40:32.904Z,36
2022-12-15T03:43:03.581Z,30
2022-12-15T03:45:34.261Z,38
2022-12-15T03:48:06.829Z,32
2022-12-15T03:50:38.036Z,36
2022-12-15T03:53:08.909Z,37
2022-12-15T03:55:39.364Z,37
2022-12-15T03:58:10.439Z,32
2022-12-15T04:00:41.896Z,37
2022-12-15T04:03:12.839Z,39
2022-12-15T04:05:44.551Z,41
2022-12-15T04:08:16.258Z,42
2022-12-15T04:10:47.985Z,28
2022-12-15T04:13:18.739Z,36
2022-12-15T04:15:51.624Z,37
2022-12-15T04:18:22.702Z,40
2022-12-15T04:20:53.982Z,29
2022-12-15T04:23:25.717Z,36
2022-12-15T04:25:57.847Z,39
2022-12-15T04:28:28.576Z,32
2022-12-15T04:30:59.234Z,29
2022-12-15T04:33:32.628Z,36
2022-12-15T04:36:03.230Z,28
2022-12-15T04:38:33.954Z,24
2022-12-15T04:41:04.548Z,31
2022-12-15T04:43:35.337Z,24
2022-12-15T04:46:06.620Z,36
2022-12-15T04:48:37.599Z,31
2022-12-15T04:51:08.384Z,36
2022-12-15T04:53:43.491Z,35
2022-12-15T04:56:18.563Z,36
2022-12-15T04:58:46.429Z,32
2022-12-15T05:01:16.761Z,36
2022-12-15T05:03:49.099Z,38
2022-12-15T05:06:19.907Z,29
2022-12-15T05:08:50.432Z,27
2022-12-15T05:11:22.531Z,38
2022-12-15T05:13:53.849Z,28
2022-12-15T05:16:25.096Z,33
2022-12-15T05:18:55.762Z,29
2022-12-15T05:21:26.708Z,33
2022-12-15T05:23:57.901Z,40
2022-12-15T05:26:28.728Z,32
2022-12-15T05:28:59.311Z,36
2022-12-15T05:31:30.330Z,44
2022-12-15T05:34:05.355Z,34
2022-12-15T05:36:33.516Z,31
2022-12-15T05:39:03.974Z,42
2022-12-15T05:41:35.340Z,36
2022-12-15T05:44:05.764Z,40
2022-12-15T05:46:37.057Z,36
2022-12-15T05:49:08.082Z,32
2022-12-15T05:51:39.139Z,32
2022-12-15T05:54:10.385Z,36
2022-12-15T05:56:42.077Z,32
2022-12-15T05:59:16.603Z,34
2022-12-15T06:01:48.260Z,32
2022-12-15T06:04:20.139Z,32
2022-12-15T06:06:51.439Z,38
2022-12-15T06:09:22.545Z,35
2022-12-15T06:11:52.971Z,41
2022-12-15T06:14:22.089Z,40
2022-12-15T06:16:53.786Z,32
2022-12-15T06:19:26.791Z,39
2022-12-15T06:21:59.196Z,36
2022-12-15T06:24:30.380Z,36
2022-12-15T06:27:01.566Z,42
2022-12-15T06:29:32.791Z,40
2022-12-15T06:32:03.725Z,40
2022-12-15T06:34:34.474Z,45
2022-12-15T06:37:04.997Z,53
2022-12-15T06:39:36.014Z,48
2022-12-15T06:42:06.749Z,43
2022-12-15T06:44:37.624Z,37
2022-12-15T06:47:08.057Z,47
2022-12-15T06:49:39.889Z,47
2022-12-15T06:52:10.943Z,40
2022-12-15T06:54:41.744Z,53
2022-12-15T06:57:12.827Z,44
2022-12-15T06:59:47.516Z,44
2022-12-15T07:02:21.167Z,52
2022-12-15T07:04:48.499Z,52
2022-12-15T07:07:20.697Z,48
2022-12-15T07:09:51.329Z,48
2022-12-15T07:12:22.062Z,48
2022-12-15T07:14:53.759Z,52
2022-12-15T07:17:23.546Z,48
2022-12-15T07:19:54.221Z,52
2022-12-15T07:22:25.016Z,52
2022-12-15T07:24:55.388Z,52
2022-12-15T07:27:25.809Z,52
2022-12-15T07:29:56.400Z,52
2022-12-15T07:32:26.507Z,54
2022-12-15T07:34:57.327Z,56
2022-12-15T07:37:28.760Z,52
2022-12-15T07:39:59.629Z,56
2022-12-15T07:42:30.181Z,52
2022-12-15T07:45:00.355Z,52
2022-12-15T07:47:32.503Z,50
2022-12-15T07:50:02.910Z,55
2022-12-15T07:52:34.952Z,48
2022-12-15T07:55:05.588Z,52
2022-12-15T07:57:38.022Z,47
2022-12-15T08:00:11.330Z,53
2022-12-15T08:02:42.478Z,46
2022-12-15T08:05:12.973Z,63
2022-12-15T08:07:43.744Z,73
2022-12-15T08:10:14.371Z,73
2022-12-15T08:12:44.697Z,60
2022-12-15T08:15:15.656Z,64
2022-12-15T08:17:46.208Z,60
2022-12-15T08:20:17.003Z,112
2022-12-15T08:22:49.643Z,64
2022-12-15T08:25:20.147Z,55
2022-12-15T08:27:50.765Z,46
2022-12-15T08:30:22.027Z,49
2022-12-15T08:32:52.696Z,56
2022-12-15T08:35:47.227Z,59
2022-12-15T08:37:53.506Z,52
2022-12-15T08:40:24.459Z,45
2022-12-15T08:42:55.107Z,44
2022-12-15T08:45:24.158Z,45
2022-12-15T08:47:54.905Z,53
2022-12-15T08:50:25.500Z,60
2022-12-15T08:53:21.744Z,48
2022-12-15T08:55:27.700Z,49
2022-12-15T08:57:59.184Z,48
2022-12-15T09:00:30.434Z,45
2022-12-15T09:03:01.631Z,48
2022-12-15T09:05:33.367Z,71
2022-12-15T09:08:06.662Z,54
2022-12-15T09:10:35.709Z,56
2022-12-15T09:13:06.306Z,52
2022-12-15T09:16:07.440Z,58
2022-12-15T09:18:12.166Z,52
2022-12-15T09:20:42.817Z,49
2022-12-15T09:23:15.104Z,50
2022-12-15T09:25:45.588Z,44
2022-12-15T09:28:17.268Z,47
2022-12-15T09:30:47.876Z,48
2022-12-15T09:33:20.345Z,48
2022-12-15T09:35:50.841Z,48
2022-12-15T09:38:21.648Z,48
2022-12-15T09:40:52.022Z,56
2022-12-15T09:43:34.919Z,58
2022-12-15T09:45:52.893Z,52
2022-12-15T09:48:23.262Z,52
2022-12-15T09:50:54.187Z,51
2022-12-15T09:53:53.386Z,48
2022-12-15T09:55:58.878Z,49
2022-12-15T09:58:30.801Z,52
2022-12-15T10:01:01.677Z,46
2022-12-15T10:03:32.785Z,49
2022-12-15T10:06:21.061Z,48
2022-12-15T10:08:33.325Z,48
2022-12-15T10:11:04.900Z,48
2022-12-15T10:13:35.517Z,48
2022-12-15T10:16:06.234Z,48
2022-12-15T10:18:37.007Z,48
2022-12-15T10:21:07.509Z,48
2022-12-15T10:23:38.067Z,47
2022-12-15T10:26:08.541Z,49
2022-12-15T10:28:38.787Z,48
2022-12-15T10:31:09.925Z,48
2022-12-15T10:33:46.990Z,48
2022-12-15T10:36:12.244Z,52
2022-12-15T10:38:44.351Z,52
2022-12-15T10:41:15.047Z,51
2022-12-15T10:43:47.223Z,55
2022-12-15T10:46:17.849Z,50
2022-12-15T10:48:49.147Z,53
2022-12-15T10:51:19.324Z,48
2022-12-15T10:53:50.368Z,56
2022-12-15T10:56:18.532Z,52
2022-12-15T10:58:50.111Z,57
2022-12-15T11:01:19.725Z,56
2022-12-15T11:03:50.633Z,91
2022-12-15T11:06:20.869Z,47
2022-12-15T11:08:52.825Z,40
2022-12-15T11:11:27.413Z,44
2022-12-15T11:13:54.738Z,45
2022-12-15T11:16:25.446Z,44
2022-12-15T11:18:56.338Z,46
2022-12-15T11:21:27.256Z,48
2022-12-15T11:23:57.741Z,40
2022-12-15T11:26:27.975Z,46
2022-12-15T11:28:59.059Z,43
2022-12-15T11:31:35.606Z,40
2022-12-15T11:34:06.272Z,49
2022-12-15T11:36:38.776Z,40
2022-12-15T11:39:09.901Z,44
2022-12-15T11:41:41.722Z,44
2022-12-15T11:44:11.898Z,44
2022-12-15T11:46:45.308Z,41
2022-12-15T11:49:16.429Z,40
2022-12-15T11:51:47.397Z,49
2022-12-15T11:54:18.376Z,45
2022-12-15T11:56:49.171Z,47
2022-12-15T11:59:20.307Z,44
2022-12-15T12:01:55.626Z,52
2022-12-15T12:04:21.773Z,50
2022-12-15T12:06:52.916Z,48
2022-12-15T12:09:24.057Z,47
2022-12-15T12:11:54.546Z,48
2022-12-15T12:14:24.821Z,54
2022-12-15T12:16:55.319Z,48
2022-12-15T12:19:27.561Z,47
2022-12-15T12:21:58.519Z,48
2022-12-15T12:24:29.256Z,48
2022-12-15T12:26:59.849Z,45
2022-12-15T12:29:30.605Z,48
2022-12-15T12:32:04.707Z,44
2022-12-15T12:34:31.478Z,45
2022-12-15T12:37:02.411Z,54
2022-12-15T12:39:34.299Z,48
2022-12-15T12:42:05.063Z,54
2022-12-15T12:44:35.623Z,48
2022-12-15T12:47:07.007Z,40
2022-12-15T12:49:38.930Z,44
2022-12-15T12:52:10.885Z,44
2022-12-15T12:54:41.931Z,45
2022-12-15T12:57:13.597Z,44
2022-12-15T12:59:44.399Z,48
2022-12-15T13:02:16.026Z,44
2022-12-15T13:04:46.660Z,43
2022-12-15T13:07:18.333Z,44
2022-12-15T13:09:51.310Z,40
2022-12-15T13:14:52.943Z,43
2022-12-15T13:17:27.107Z,39
2022-12-15T13:19:56.001Z,51
2022-12-15T13:22:27.380Z,46
2022-12-15T13:24:59.992Z,49
2022-12-15T13:27:31.867Z,76
2022-12-15T13:30:04.357Z,61
2022-12-15T13:32:36.085Z,60
2022-12-15T13:35:06.550Z,52
2022-12-15T13:37:37.673Z,48
2022-12-15T13:40:08.675Z,48
2022-12-15T13:42:52.847Z,52
2022-12-15T13:45:11.925Z,52
2022-12-15T13:47:43.876Z,43
2022-12-15T13:50:16.503Z,44
2022-12-15T13:55:22.650Z,42
2022-12-15T13:57:50.533Z,40
2022-12-15T14:00:22.000Z,37
2022-12-15T14:02:53.485Z,44
2022-12-15T14:05:24.952Z,52
2022-12-15T14:07:56.432Z,56
2022-12-15T14:10:27.543Z,56
2022-12-15T14:12:58.972Z,57
2022-12-15T14:15:30.166Z,52
2022-12-15T14:18:01.073Z,56
2022-12-15T14:20:32.311Z,49
2022-12-15T14:23:03.946Z,44
2022-12-15T14:25:36.135Z,49
2022-12-15T14:28:12.154Z,48
2022-12-15T14:30:41.613Z,44
2022-12-15T14:33:12.938Z,48
2022-12-15T14:35:49.352Z,48
2022-12-15T14:38:17.452Z,54
2022-12-15T14:40:49.581Z,55
2022-12-15T14:43:21.010Z,56
2022-12-15T14:45:52.057Z,60
2022-12-15T14:48:40.874Z,65
2022-12-15T14:50:55.886Z,83
2022-12-15T14:53:27.311Z,85
2022-12-15T14:55:59.055Z,86
2022-12-15T14:58:31.548Z,83
2022-12-15T15:01:02.011Z,68
2022-12-15T15:03:15.004Z,42
2022-12-15T15:03:33.787Z,76
2022-12-15T15:06:05.529Z,79
2022-12-15T15:08:37.310Z,68
2022-12-15T15:11:06.739Z,84
2022-12-15T15:13:39.890Z,87
2022-12-15T15:16:10.634Z,117
2022-12-15T15:18:42.223Z,119
2022-12-15T15:21:15.084Z,127
2022-12-15T15:23:46.837Z,80
2022-12-15T15:26:18.025Z,81
2022-12-15T15:28:49.335Z,80
2022-12-15T15:31:21.305Z,82
2022-12-15T15:33:52.632Z,102
2022-12-15T15:36:24.353Z,72
2022-12-15T15:38:56.133Z,68
2022-12-15T15:41:27.160Z,64
2022-12-15T15:43:59.371Z,60
2022-12-15T15:46:30.476Z,73
2022-12-15T15:49:01.717Z,93
2022-12-15T15:51:33.232Z,84
2022-12-15T15:54:04.616Z,88
2022-12-15T15:56:35.718Z,85
2022-12-15T15:59:08.975Z,89
2022-12-15T16:01:38.411Z,95
2022-12-15T16:04:11.122Z,76
2022-12-15T16:06:47.189Z,79
2022-12-15T16:09:13.969Z,83
2022-12-15T16:11:46.749Z,80
2022-12-15T16:14:19.479Z,95
2022-12-15T16:16:50.402Z,128
2022-12-15T16:19:21.797Z,130
2022-12-15T16:21:54.005Z,121
2022-12-15T16:24:25.374Z,131
2022-12-15T16:26:56.286Z,129
2022-12-15T16:29:30.392Z,133
2022-12-15T16:32:02.478Z,135
2022-12-15T16:34:33.370Z,128
2022-12-15T16:37:06.451Z,136
2022-12-15T16:39:39.689Z,136
2022-12-15T16:42:11.398Z,136
2022-12-15T16:44:42.357Z,129
2022-12-15T16:47:14.112Z,141
2022-12-15T16:49:45.268Z,135
2022-12-15T16:52:16.127Z,135
2022-12-15T16:54:47.451Z,129
2022-12-15T16:57:18.864Z,111
2022-12-15T16:59:51.638Z,123
2022-12-15T17:02:24.300Z,123
2022-12-15T17:04:55.703Z,126
2022-12-15T17:07:26.972Z,137
2022-12-15T17:09:58.804Z,143
2022-12-15T17:12:31.435Z,148
2022-12-15T17:15:02.974Z,134
2022-12-15T17:17:34.294Z,160
2022-12-15T17:22:37.633Z,155
2022-12-15T17:25:09.665Z,165
2022-12-15T17:27:40.143Z,165
2022-12-15T17:30:11.363Z,165
2022-12-15T17:32:42.343Z,189
2022-12-15T17:35:14.539Z,212
2022-12-15T17:37:45.925Z,238
2022-12-15T17:40:20.026Z,220
2022-12-15T17:42:51.382Z,202
2022-12-15T17:45:23.990Z,210
2022-12-15T17:47:55.807Z,185
2022-12-15T17:50:26.995Z,149
2022-12-15T17:52:59.071Z,143
2022-12-15T17:55:34.935Z,137
2022-12-15T17:58:02.792Z,143
2022-12-15T18:00:34.146Z,167
2022-12-15T18:03:07.769Z,171
2022-12-15T18:05:39.888Z,178
2022-12-15T18:08:11.377Z,173
2022-12-15T18:10:42.539Z,186
2022-12-15T18:13:14.191Z,180
2022-12-15T18:15:45.203Z,200
2022-12-15T18:18:16.259Z,186
2022-12-15T18:20:47.564Z,117
2022-12-15T18:23:19.333Z,122
2022-12-15T18:25:50.681Z,153
2022-12-15T18:28:21.606Z,201
2022-12-15T18:30:52.780Z,268
2022-12-15T18:33:23.942Z,263
2022-12-15T18:36:00.117Z,249
2022-12-15T18:38:31.657Z,235
2022-12-15T18:41:03.023Z,248
2022-12-15T18:43:35.592Z,224
2022-12-15T18:46:07.049Z,210
2022-12-15T18:48:38.246Z,193
2022-12-15T18:51:10.311Z,177
2022-12-15T18:53:42.097Z,167
2022-12-15T18:56:11.824Z,155
2022-12-15T18:58:45.090Z,176
2022-12-15T19:01:16.676Z,181
2022-12-15T19:03:48.811Z,183
2022-12-15T19:06:24.055Z,196
2022-12-15T19:08:51.282Z,187
2022-12-15T19:11:23.320Z,182
2022-12-15T19:13:54.130Z,200
2022-12-15T19:16:25.421Z,190
2022-12-15T19:18:56.818Z,186
2022-12-15T19:21:27.610Z,198
2022-12-15T19:23:59.824Z,211
2022-12-15T19:26:31.200Z,306
2022-12-15T19:29:00.811Z,301
2022-12-15T19:31:32.101Z,300
2022-12-15T19:34:03.447Z,292
2022-12-15T19:36:36.783Z,296
2022-12-15T19:39:05.861Z,242
2022-12-15T19:41:37.687Z,241
2022-12-15T19:44:08.834Z,212
2022-12-15T19:46:39.821Z,219
2022-12-15T19:49:12.746Z,213
2022-12-15T19:51:44.347Z,179
2022-12-15T19:54:17.237Z,161
2022-12-15T19:56:48.622Z,170
2022-12-15T19:59:20.561Z,141
2022-12-15T20:01:52.017Z,152
2022-12-15T20:04:24.434Z,129
2022-12-15T20:06:54.597Z,142
2022-12-15T20:09:25.679Z,229
2022-12-15T20:11:56.893Z,285
2022-12-15T20:14:29.928Z,286
2022-12-15T20:17:01.343Z,281
2022-12-15T20:19:32.627Z,284
2022-12-15T20:22:05.129Z,251
2022-12-15T20:24:37.040Z,249
2022-12-15T20:27:11.726Z,244
2022-12-15T20:29:39.593Z,135
2022-12-15T20:32:10.956Z,194
2022-12-15T20:34:47.031Z,198
2022-12-15T20:37:18.644Z,200
2022-12-15T20:39:57.099Z,180
2022-12-15T20:42:23.480Z,149
2022-12-15T20:44:56.017Z,125
2022-12-15T20:47:27.326Z,98
2022-12-15T20:50:03.871Z,94
2022-12-15T20:52:37.060Z,92
2022-12-15T20:55:09.515Z,78
2022-12-15T20:57:41.771Z,80
2022-12-15T21:00:18.483Z,69
2022-12-15T21:02:51.865Z,68
2022-12-15T21:05:23.541Z,70
2022-12-15T21:07:55.802Z,73
2022-12-15T21:10:27.281Z,64
2022-12-15T21:12:57.100Z,78
2022-12-15T21:15:30.605Z,73
2022-12-15T21:18:29.455Z,56
2022-12-15T21:20:34.306Z,64
2022-12-15T21:23:05.958Z,54
2022-12-15T21:25:37.344Z,56
2022-12-15T21:28:08.691Z,102
2022-12-15T21:30:39.899Z,69
2022-12-15T21:33:11.344Z,54
2022-12-15T21:35:43.753Z,53
2022-12-15T21:38:17.362Z,48
2022-12-15T21:40:54.567Z,47
2022-12-15T21:43:22.283Z,48
2022-12-15T21:45:53.916Z,44
2022-12-15T21:48:31.480Z,47
2022-12-15T21:51:02.872Z,44
2022-12-15T21:53:34.486Z,48
2022-12-15T21:56:06.536Z,48
2022-12-15T21:58:39.228Z,39
2022-12-15T22:01:10.588Z,44
2022-12-15T22:03:42.031Z,38
2022-12-15T22:06:14.455Z,40
2022-12-15T22:08:45.775Z,44
2022-12-15T22:11:17.630Z,40
2022-12-15T22:13:52.193Z,44
2022-12-15T22:16:23.725Z,40
2022-12-15T22:18:56.014Z,40
2022-12-15T22:21:27.188Z,41
2022-12-15T22:23:59.125Z,44
2022-12-15T22:26:31.823Z,39
2022-12-15T22:29:03.352Z,41
2022-12-15T22:31:34.728Z,39
2022-12-15T22:34:05.906Z,40
2022-12-15T22:36:37.574Z,37
2022-12-15T22:39:08.726Z,40
2022-12-15T22:41:39.972Z,39
2022-12-15T22:44:13.571Z,40
2022-12-15T22:46:45.192Z,40
2022-12-15T22:49:16.740Z,48
2022-12-15T22:51:48.851Z,44
2022-12-15T22:54:19.945Z,44
2022-12-15T22:56:51.508Z,40
2022-12-15T22:59:23.043Z,44
2022-12-15T23:01:54.799Z,43
2022-12-15T23:04:26.189Z,40
2022-12-15T23:07:00.164Z,38
2022-12-15T23:09:37.434Z,40
2022-12-15T23:12:30.664Z,40
2022-12-15T23:17:50.157Z,36
2022-12-15T23:20:22.321Z,40
2022-12-15T23:23:00.949Z,41
2022-12-15T23:25:36.499Z,40
2022-12-15T23:28:15.683Z,40
2022-12-15T23:30:49.415Z,36
2022-12-15T23:33:29.356Z,40
2022-12-15T23:36:02.700Z,40
2022-12-15T23:38:40.210Z,40
2022-12-15T23:41:11.121Z,40
2022-12-15T23:43:40.194Z,40
2022-12-15T23:46:11.249Z,42
2022-12-15T23:48:41.816Z,42
2022-12-15T23:51:12.766Z,40
2022-12-15T23:53:44.127Z,36
2022-12-15T23:56:15.054Z,43
2022-12-15T23:58:45.782Z,40
